sensor_id;sensor_type;location;lat;lon;timestamp;pressure;altitude;pressure_sealevel;temperature;humidity
70323;BME280;57735;56.264;43.898;2024-02-21T00:00:32;102047.09;;;-6.08;68.56
70323;BME280;57735;56.264;43.898;2024-02-21T00:03:03;102047.09;;;-6.08;68.75
70323;BME280;57735;56.264;43.898;2024-02-21T00:05:36;102051.44;;;-6.08;68.50
70323;BME280;57735;56.264;43.898;2024-02-21T00:08:10;102044.50;;;-6.08;68.79
70323;BME280;57735;56.264;43.898;2024-02-21T00:10:41;102042.78;;;-6.06;69.15
70323;BME280;57735;56.264;43.898;2024-02-21T00:13:12;102047.06;;;-6.03;68.87
70323;BME280;57735;56.264;43.898;2024-02-21T00:15:46;102045.31;;;-6.03;69.15
70323;BME280;57735;56.264;43.898;2024-02-21T00:18:16;102041.00;;;-5.99;69.22
70323;BME280;57735;56.264;43.898;2024-02-21T00:20:49;102041.84;;;-5.95;68.72
70323;BME280;57735;56.264;43.898;2024-02-21T00:23:23;102047.91;;;-5.95;69.31
70323;BME280;57735;56.264;43.898;2024-02-21T00:25:56;102047.03;;;-5.92;69.12
70323;BME280;57735;56.264;43.898;2024-02-21T00:28:27;102045.28;;;-5.90;69.35
70323;BME280;57735;56.264;43.898;2024-02-21T00:30:58;102048.75;;;-5.88;69.40
70323;BME280;57735;56.264;43.898;2024-02-21T00:33:29;102046.16;;;-5.91;69.47
70323;BME280;57735;56.264;43.898;2024-02-21T00:36:00;102047.88;;;-5.93;69.96
70323;BME280;57735;56.264;43.898;2024-02-21T00:38:30;102040.97;;;-5.97;70.16
70323;BME280;57735;56.264;43.898;2024-02-21T00:41:06;102040.13;;;-6.03;69.96
70323;BME280;57735;56.264;43.898;2024-02-21T00:43:37;102037.59;;;-6.07;70.23
70323;BME280;57735;56.264;43.898;2024-02-21T00:46:08;102042.81;;;-6.15;70.83
70323;BME280;57735;56.264;43.898;2024-02-21T00:48:39;102053.19;;;-6.16;71.11
70323;BME280;57735;56.264;43.898;2024-02-21T00:51:09;102049.78;;;-6.23;71.40
70323;BME280;57735;56.264;43.898;2024-02-21T00:53:40;102047.19;;;-6.21;71.60
70323;BME280;57735;56.264;43.898;2024-02-21T00:56:11;102048.91;;;-6.22;71.72
70323;BME280;57735;56.264;43.898;2024-02-21T00:58:42;102043.72;;;-6.22;71.94
70323;BME280;57735;56.264;43.898;2024-02-21T01:01:12;102038.53;;;-6.22;71.70
70323;BME280;57735;56.264;43.898;2024-02-21T01:03:43;102042.81;;;-6.19;72.09
70323;BME280;57735;56.264;43.898;2024-02-21T01:06:14;102039.41;;;-6.21;72.21
70323;BME280;57735;56.264;43.898;2024-02-21T01:08:48;102035.91;;;-6.19;72.02
70323;BME280;57735;56.264;43.898;2024-02-21T01:11:19;102034.16;;;-6.18;71.96
70323;BME280;57735;56.264;43.898;2024-02-21T01:13:50;102034.16;;;-6.20;72.05
70323;BME280;57735;56.264;43.898;2024-02-21T01:16:24;102046.31;;;-6.25;71.99
70323;BME280;57735;56.264;43.898;2024-02-21T01:18:54;102031.63;;;-6.26;71.97
70323;BME280;57735;56.264;43.898;2024-02-21T01:21:25;102040.28;;;-6.28;72.31
70323;BME280;57735;56.264;43.898;2024-02-21T01:23:56;102038.56;;;-6.34;72.38
70323;BME280;57735;56.264;43.898;2024-02-21T01:26:27;102035.16;;;-6.42;72.33
70323;BME280;57735;56.264;43.898;2024-02-21T01:28:58;102027.38;;;-6.44;72.71
70323;BME280;57735;56.264;43.898;2024-02-21T01:31:29;102029.97;;;-6.45;72.82
70323;BME280;57735;56.264;43.898;2024-02-21T01:34:00;102042.94;;;-6.45;72.80
70323;BME280;57735;56.264;43.898;2024-02-21T01:36:31;102031.72;;;-6.50;72.28
70323;BME280;57735;56.264;43.898;2024-02-21T01:39:02;102035.16;;;-6.51;72.55
70323;BME280;57735;56.264;43.898;2024-02-21T01:41:35;102027.44;;;-6.57;72.36
70323;BME280;57735;56.264;43.898;2024-02-21T01:44:06;102041.25;;;-6.63;72.51
70323;BME280;57735;56.264;43.898;2024-02-21T01:46:37;102035.22;;;-6.70;72.80
70323;BME280;57735;56.264;43.898;2024-02-21T01:49:08;102042.13;;;-6.70;72.84
70323;BME280;57735;56.264;43.898;2024-02-21T01:51:39;102025.75;;;-6.71;72.75
70323;BME280;57735;56.264;43.898;2024-02-21T01:54:14;102026.63;;;-6.76;72.89
70323;BME280;57735;56.264;43.898;2024-02-21T01:56:47;102030.06;;;-6.83;72.59
70323;BME280;57735;56.264;43.898;2024-02-21T01:59:18;102030.97;;;-6.87;72.85
70323;BME280;57735;56.264;43.898;2024-02-21T02:01:51;102030.13;;;-6.89;73.08
70323;BME280;57735;56.264;43.898;2024-02-21T02:04:24;102025.78;;;-6.92;72.97
70323;BME280;57735;56.264;43.898;2024-02-21T02:06:55;102027.53;;;-6.92;73.17
70323;BME280;57735;56.264;43.898;2024-02-21T02:09:26;102028.38;;;-6.92;73.18
70323;BME280;57735;56.264;43.898;2024-02-21T02:11:57;102024.06;;;-6.91;73.41
70323;BME280;57735;56.264;43.898;2024-02-21T02:14:33;102025.78;;;-6.90;73.45
70323;BME280;57735;56.264;43.898;2024-02-21T02:17:05;102018.88;;;-6.93;73.07
70323;BME280;57735;56.264;43.898;2024-02-21T02:19:36;102026.66;;;-6.96;73.19
70323;BME280;57735;56.264;43.898;2024-02-21T02:22:11;102025.78;;;-6.98;72.83
70323;BME280;57735;56.264;43.898;2024-02-21T02:24:45;102018.03;;;-6.98;72.71
70323;BME280;57735;56.264;43.898;2024-02-21T02:27:16;102020.59;;;-6.99;72.88
70323;BME280;57735;56.264;43.898;2024-02-21T02:29:46;102030.97;;;-7.01;73.05
70323;BME280;57735;56.264;43.898;2024-02-21T02:32:17;102026.66;;;-7.00;72.99
70323;BME280;57735;56.264;43.898;2024-02-21T02:34:48;102022.34;;;-7.01;73.12
70323;BME280;57735;56.264;43.898;2024-02-21T02:37:19;102017.16;;;-7.03;73.18
70323;BME280;57735;56.264;43.898;2024-02-21T02:39:49;102022.38;;;-7.05;72.72
70323;BME280;57735;56.264;43.898;2024-02-21T02:42:20;102015.44;;;-7.01;73.07
70323;BME280;57735;56.264;43.898;2024-02-21T02:44:51;102028.38;;;-6.98;72.63
70323;BME280;57735;56.264;43.898;2024-02-21T02:47:22;102029.25;;;-6.96;72.15
70323;BME280;57735;56.264;43.898;2024-02-21T02:49:53;102024.06;;;-6.90;72.24
70323;BME280;57735;56.264;43.898;2024-02-21T02:52:24;102024.94;;;-6.89;71.50
70323;BME280;57735;56.264;43.898;2024-02-21T02:54:54;102018.00;;;-6.87;71.21
70323;BME280;57735;56.264;43.898;2024-02-21T02:57:26;102020.56;;;-6.81;71.21
70323;BME280;57735;56.264;43.898;2024-02-21T02:59:57;102021.44;;;-6.75;71.15
70323;BME280;57735;56.264;43.898;2024-02-21T03:02:28;102019.69;;;-6.73;70.77
70323;BME280;57735;56.264;43.898;2024-02-21T03:04:59;102018.84;;;-6.72;71.08
70323;BME280;57735;56.264;43.898;2024-02-21T03:07:32;102022.28;;;-6.71;70.73
70323;BME280;57735;56.264;43.898;2024-02-21T03:10:03;102018.81;;;-6.67;70.75
70323;BME280;57735;56.264;43.898;2024-02-21T03:12:34;102016.19;;;-6.65;70.98
70323;BME280;57735;56.264;43.898;2024-02-21T03:15:06;102012.75;;;-6.64;70.64
70323;BME280;57735;56.264;43.898;2024-02-21T03:17:38;102015.34;;;-6.60;71.04
70323;BME280;57735;56.264;43.898;2024-02-21T03:20:09;102009.28;;;-6.60;70.59
70323;BME280;57735;56.264;43.898;2024-02-21T03:22:41;102008.41;;;-6.58;70.75
70323;BME280;57735;56.264;43.898;2024-02-21T03:25:14;102000.63;;;-6.55;70.57
70323;BME280;57735;56.264;43.898;2024-02-21T03:27:45;102003.19;;;-6.53;70.79
70323;BME280;57735;56.264;43.898;2024-02-21T03:30:16;101997.16;;;-6.55;70.70
70323;BME280;57735;56.264;43.898;2024-02-21T03:32:47;102005.78;;;-6.53;70.84
70323;BME280;57735;56.264;43.898;2024-02-21T03:35:18;102004.03;;;-6.48;71.08
70323;BME280;57735;56.264;43.898;2024-02-21T03:37:49;102005.75;;;-6.46;70.56
70323;BME280;57735;56.264;43.898;2024-02-21T03:40:20;102010.09;;;-6.49;70.39
70323;BME280;57735;56.264;43.898;2024-02-21T03:42:51;101994.53;;;-6.51;70.96
70323;BME280;57735;56.264;43.898;2024-02-21T03:45:25;102005.75;;;-6.47;71.35
70323;BME280;57735;56.264;43.898;2024-02-21T03:47:58;102006.63;;;-6.44;70.90
70323;BME280;57735;56.264;43.898;2024-02-21T03:50:30;102003.16;;;-6.43;70.52
70323;BME280;57735;56.264;43.898;2024-02-21T03:53:01;102003.16;;;-6.46;70.17
70323;BME280;57735;56.264;43.898;2024-02-21T03:55:31;102000.59;;;-6.50;70.12
70323;BME280;57735;56.264;43.898;2024-02-21T03:58:02;102011.00;;;-6.56;69.96
70323;BME280;57735;56.264;43.898;2024-02-21T04:00:36;102005.81;;;-6.56;70.09
70323;BME280;57735;56.264;43.898;2024-02-21T04:03:07;102003.22;;;-6.58;70.12
70323;BME280;57735;56.264;43.898;2024-02-21T04:05:38;102007.53;;;-6.55;70.55
70323;BME280;57735;56.264;43.898;2024-02-21T04:08:09;102007.50;;;-6.52;70.53
70323;BME280;57735;56.264;43.898;2024-02-21T04:10:40;102000.59;;;-6.50;70.56
70323;BME280;57735;56.264;43.898;2024-02-21T04:13:12;101998.84;;;-6.51;70.50
70323;BME280;57735;56.264;43.898;2024-02-21T04:15:45;102005.78;;;-6.49;70.54
70323;BME280;57735;56.264;43.898;2024-02-21T04:18:16;102003.19;;;-6.53;70.33
70323;BME280;57735;56.264;43.898;2024-02-21T04:20:47;102012.75;;;-6.58;70.21
70323;BME280;57735;56.264;43.898;2024-02-21T04:23:18;102004.97;;;-6.61;70.72
70323;BME280;57735;56.264;43.898;2024-02-21T04:25:49;102021.38;;;-6.61;70.76
70323;BME280;57735;56.264;43.898;2024-02-21T04:28:19;102010.16;;;-6.63;69.87
70323;BME280;57735;56.264;43.898;2024-02-21T04:30:50;102008.41;;;-6.64;69.85
70323;BME280;57735;56.264;43.898;2024-02-21T04:33:21;102003.22;;;-6.61;70.37
70323;BME280;57735;56.264;43.898;2024-02-21T04:35:52;102005.81;;;-6.56;70.10
70323;BME280;57735;56.264;43.898;2024-02-21T04:38:25;102006.63;;;-6.48;70.31
70323;BME280;57735;56.264;43.898;2024-02-21T04:40:56;102003.16;;;-6.43;70.53
70323;BME280;57735;56.264;43.898;2024-02-21T04:43:28;102008.28;;;-6.35;70.11
70323;BME280;57735;56.264;43.898;2024-02-21T04:46:02;102004.84;;;-6.32;70.16
70323;BME280;57735;56.264;43.898;2024-02-21T04:48:35;102003.97;;;-6.30;69.78
70323;BME280;57735;56.264;43.898;2024-02-21T04:51:05;102010.00;;;-6.26;70.03
70323;BME280;57735;56.264;43.898;2024-02-21T04:53:36;102006.56;;;-6.28;69.24
70323;BME280;57735;56.264;43.898;2024-02-21T04:56:07;102005.69;;;-6.26;69.71
70323;BME280;57735;56.264;43.898;2024-02-21T04:58:39;102003.09;;;-6.27;69.27
70323;BME280;57735;56.264;43.898;2024-02-21T05:01:09;102009.16;;;-6.31;69.62
70323;BME280;57735;56.264;43.898;2024-02-21T05:03:40;102001.44;;;-6.44;69.91
70323;BME280;57735;56.264;43.898;2024-02-21T05:06:11;102007.50;;;-6.52;70.00
70323;BME280;57735;56.264;43.898;2024-02-21T05:08:42;102017.91;;;-6.55;69.89
70323;BME280;57735;56.264;43.898;2024-02-21T05:11:13;102011.00;;;-6.56;70.25
70323;BME280;57735;56.264;43.898;2024-02-21T05:13:46;102011.00;;;-6.56;69.90
70323;BME280;57735;56.264;43.898;2024-02-21T05:16:17;102005.81;;;-6.56;69.81
70323;BME280;57735;56.264;43.898;2024-02-21T05:18:49;102009.28;;;-6.54;69.47
70323;BME280;57735;56.264;43.898;2024-02-21T05:21:24;102007.53;;;-6.55;69.20
70323;BME280;57735;56.264;43.898;2024-02-21T05:23:56;102007.56;;;-6.58;69.29
70323;BME280;57735;56.264;43.898;2024-02-21T05:26:30;102016.19;;;-6.56;69.08
70323;BME280;57735;56.264;43.898;2024-02-21T05:29:01;102010.13;;;-6.54;69.07
70323;BME280;57735;56.264;43.898;2024-02-21T05:34:23;102002.28;;;-6.40;68.72
70323;BME280;57735;56.264;43.898;2024-02-21T05:36:54;102018.72;;;-6.40;68.77
70323;BME280;57735;56.264;43.898;2024-02-21T05:39:25;102017.84;;;-6.37;68.28
70323;BME280;57735;56.264;43.898;2024-02-21T05:41:56;102005.72;;;-6.35;68.19
70323;BME280;57735;56.264;43.898;2024-02-21T05:44:27;102014.34;;;-6.33;67.85
70323;BME280;57735;56.264;43.898;2024-02-21T05:46:58;102007.47;;;-6.37;67.89
70323;BME280;57735;56.264;43.898;2024-02-21T05:49:29;102004.88;;;-6.39;67.68
70323;BME280;57735;56.264;43.898;2024-02-21T05:51:59;102008.34;;;-6.40;67.71
70323;BME280;57735;56.264;43.898;2024-02-21T05:54:30;102009.22;;;-6.42;67.49
70323;BME280;57735;56.264;43.898;2024-02-21T05:57:01;102010.94;;;-6.38;67.51
70323;BME280;57735;56.264;43.898;2024-02-21T05:59:32;102007.47;;;-6.42;67.77
70323;BME280;57735;56.264;43.898;2024-02-21T06:02:03;102021.28;;;-6.35;67.74
70323;BME280;57735;56.264;43.898;2024-02-21T06:04:34;101997.91;;;-6.34;67.60
70323;BME280;57735;56.264;43.898;2024-02-21T06:07:05;101998.75;;;-6.27;67.75
70323;BME280;57735;56.264;43.898;2024-02-21T06:09:40;101997.91;;;-6.29;67.61
70323;BME280;57735;56.264;43.898;2024-02-21T06:12:15;102000.47;;;-6.23;67.56
70323;BME280;57735;56.264;43.898;2024-02-21T06:14:48;102001.28;;;-6.13;67.67
70323;BME280;57735;56.264;43.898;2024-02-21T06:17:20;102008.13;;;-6.02;68.27
70323;BME280;57735;56.264;43.898;2024-02-21T06:19:52;102002.00;;;-5.88;68.18
70323;BME280;57735;56.264;43.898;2024-02-21T06:22:23;102007.09;;;-5.82;68.01
70323;BME280;57735;56.264;43.898;2024-02-21T06:24:54;102002.75;;;-5.76;67.73
70323;BME280;57735;56.264;43.898;2024-02-21T06:27:25;102013.03;;;-5.64;67.66
70323;BME280;57735;56.264;43.898;2024-02-21T06:29:56;102006.84;;;-5.49;67.83
70323;BME280;57735;56.264;43.898;2024-02-21T06:32:27;102022.38;;;-5.38;66.57
70323;BME280;57735;56.264;43.898;2024-02-21T06:34:57;102018.88;;;-5.36;66.22
70323;BME280;57735;56.264;43.898;2024-02-21T06:37:35;102019.72;;;-5.32;66.37
70323;BME280;57735;56.264;43.898;2024-02-21T06:40:08;102013.63;;;-5.28;66.42
70323;BME280;57735;56.264;43.898;2024-02-21T06:42:39;102020.56;;;-5.30;65.77
70323;BME280;57735;56.264;43.898;2024-02-21T06:45:10;102025.72;;;-5.27;66.23
70323;BME280;57735;56.264;43.898;2024-02-21T06:47:41;102027.38;;;-5.18;66.32
70323;BME280;57735;56.264;43.898;2024-02-21T06:50:11;102030.78;;;-5.12;65.73
70323;BME280;57735;56.264;43.898;2024-02-21T06:52:42;102027.38;;;-5.18;65.12
70323;BME280;57735;56.264;43.898;2024-02-21T06:55:13;102030.06;;;-5.28;65.58
70323;BME280;57735;56.264;43.898;2024-02-21T06:57:44;102030.97;;;-5.35;65.64
70323;BME280;57735;56.264;43.898;2024-02-21T07:00:15;102045.69;;;-5.34;65.69
70323;BME280;57735;56.264;43.898;2024-02-21T07:02:48;102041.34;;;-5.30;65.92
70323;BME280;57735;56.264;43.898;2024-02-21T07:05:19;102036.97;;;-5.23;65.38
70323;BME280;57735;56.264;43.898;2024-02-21T07:07:53;102041.38;;;-5.35;64.83
70323;BME280;57735;56.264;43.898;2024-02-21T07:10:23;102043.19;;;-5.40;64.95
70323;BME280;57735;56.264;43.898;2024-02-21T07:12:55;102046.66;;;-5.41;64.83
70323;BME280;57735;56.264;43.898;2024-02-21T07:15:26;102041.44;;;-5.41;65.44
70323;BME280;57735;56.264;43.898;2024-02-21T07:17:57;102044.91;;;-5.39;65.70
70323;BME280;57735;56.264;43.898;2024-02-21T07:20:28;102043.19;;;-5.40;65.58
70323;BME280;57735;56.264;43.898;2024-02-21T07:22:59;102045.72;;;-5.35;65.29
70323;BME280;57735;56.264;43.898;2024-02-21T07:25:30;102038.75;;;-5.30;65.05
70323;BME280;57735;56.264;43.898;2024-02-21T07:28:01;102046.47;;;-5.19;65.17
70323;BME280;57735;56.264;43.898;2024-02-21T07:30:33;102047.28;;;-5.16;64.12
70323;BME280;57735;56.264;43.898;2024-02-21T07:33:04;102053.31;;;-5.12;64.03
70323;BME280;57735;56.264;43.898;2024-02-21T07:35:35;102041.16;;;-5.07;63.61
70323;BME280;57735;56.264;43.898;2024-02-21T07:38:11;102048.09;;;-5.06;63.48
70323;BME280;57735;56.264;43.898;2024-02-21T07:40:45;102040.28;;;-5.06;63.34
70323;BME280;57735;56.264;43.898;2024-02-21T07:43:16;102035.81;;;-4.92;63.54
70323;BME280;57735;56.264;43.898;2024-02-21T07:45:47;102037.50;;;-4.86;62.73
70323;BME280;57735;56.264;43.898;2024-02-21T07:48:17;102038.41;;;-4.90;62.82
70323;BME280;57735;56.264;43.898;2024-02-21T07:50:49;102040.91;;;-4.84;63.18
70323;BME280;57735;56.264;43.898;2024-02-21T07:53:20;102048.72;;;-4.83;62.39
70323;BME280;57735;56.264;43.898;2024-02-21T07:55:51;102046.19;;;-4.89;62.68
70323;BME280;57735;56.264;43.898;2024-02-21T07:58:24;102048.75;;;-4.86;62.41
70323;BME280;57735;56.264;43.898;2024-02-21T08:00:54;102057.47;;;-4.90;62.19
70323;BME280;57735;56.264;43.898;2024-02-21T08:03:25;102049.53;;;-4.78;62.38
70323;BME280;57735;56.264;43.898;2024-02-21T08:05:56;102046.88;;;-4.72;61.82
70323;BME280;57735;56.264;43.898;2024-02-21T08:08:27;102053.63;;;-4.54;61.57
70323;BME280;57735;56.264;43.898;2024-02-21T08:10:58;102043.16;;;-4.51;61.35
70323;BME280;57735;56.264;43.898;2024-02-21T08:13:29;102051.66;;;-4.35;61.06
70323;BME280;57735;56.264;43.898;2024-02-21T08:16:00;102060.06;;;-4.13;61.19
70323;BME280;57735;56.264;43.898;2024-02-21T08:18:33;102056.38;;;-3.97;60.80
70323;BME280;57735;56.264;43.898;2024-02-21T08:21:07;102055.66;;;-4.07;59.93
70323;BME280;57735;56.264;43.898;2024-02-21T08:23:38;102057.47;;;-4.15;59.78
70323;BME280;57735;56.264;43.898;2024-02-21T08:26:09;102056.53;;;-4.09;59.98
70323;BME280;57735;56.264;43.898;2024-02-21T08:28:42;102059.03;;;-4.02;59.91
70323;BME280;57735;56.264;43.898;2024-02-21T08:31:21;102059.78;;;-3.91;59.99
70323;BME280;57735;56.264;43.898;2024-02-21T08:33:53;102062.31;;;-3.86;58.91
70323;BME280;57735;56.264;43.898;2024-02-21T08:36:24;102059.00;;;-3.99;58.22
70323;BME280;57735;56.264;43.898;2024-02-21T08:38:55;102062.47;;;-4.00;58.91
70323;BME280;57735;56.264;43.898;2024-02-21T08:41:26;102058.03;;;-3.92;59.56
70323;BME280;57735;56.264;43.898;2024-02-21T08:44:00;102063.94;;;-3.77;59.26
70323;BME280;57735;56.264;43.898;2024-02-21T08:46:31;102052.56;;;-3.72;59.26
70323;BME280;57735;56.264;43.898;2024-02-21T08:49:05;102051.66;;;-3.69;57.93
70323;BME280;57735;56.264;43.898;2024-02-21T08:51:35;102057.78;;;-3.72;57.97
70323;BME280;57735;56.264;43.898;2024-02-21T08:54:07;102069.91;;;-3.71;58.01
70323;BME280;57735;56.264;43.898;2024-02-21T08:56:38;102061.13;;;-3.64;58.03
70323;BME280;57735;56.264;43.898;2024-02-21T08:59:09;102060.22;;;-3.61;58.41
70323;BME280;57735;56.264;43.898;2024-02-21T09:01:40;102067.91;;;-3.52;57.61
70323;BME280;57735;56.264;43.898;2024-02-21T09:04:11;102067.84;;;-3.49;57.74
70323;BME280;57735;56.264;43.898;2024-02-21T09:06:42;102059.94;;;-3.43;57.66
70323;BME280;57735;56.264;43.898;2024-02-21T09:09:13;102063.38;;;-3.39;57.55
70323;BME280;57735;56.264;43.898;2024-02-21T09:11:46;102059.00;;;-3.37;57.67
70323;BME280;57735;56.264;43.898;2024-02-21T09:14:19;102059.84;;;-3.35;58.97
70323;BME280;57735;56.264;43.898;2024-02-21T09:16:50;102061.53;;;-3.34;58.61
70323;BME280;57735;56.264;43.898;2024-02-21T09:19:21;102050.97;;;-3.25;58.87
70323;BME280;57735;56.264;43.898;2024-02-21T09:21:51;102058.88;;;-3.31;59.22
70323;BME280;57735;56.264;43.898;2024-02-21T09:24:22;102052.81;;;-3.33;59.05
70323;BME280;57735;56.264;43.898;2024-02-21T09:26:53;102059.91;;;-3.41;58.82
70323;BME280;57735;56.264;43.898;2024-02-21T09:29:24;102060.13;;;-3.55;58.08
70323;BME280;57735;56.264;43.898;2024-02-21T09:31:55;102061.91;;;-3.57;58.77
70323;BME280;57735;56.264;43.898;2024-02-21T09:34:30;102054.06;;;-3.56;58.51
70323;BME280;57735;56.264;43.898;2024-02-21T09:37:02;102049.72;;;-3.55;58.15
70323;BME280;57735;56.264;43.898;2024-02-21T09:39:32;102048.69;;;-3.46;58.76
70323;BME280;57735;56.264;43.898;2024-02-21T09:42:06;102053.97;;;-3.51;57.52
70323;BME280;57735;56.264;43.898;2024-02-21T09:44:39;102042.66;;;-3.50;58.17
70323;BME280;57735;56.264;43.898;2024-02-21T09:47:14;102042.78;;;-3.56;57.83
70323;BME280;57735;56.264;43.898;2024-02-21T09:49:50;102043.59;;;-3.53;58.02
70323;BME280;57735;56.264;43.898;2024-02-21T09:52:22;102040.94;;;-3.51;58.23
70323;BME280;57735;56.264;43.898;2024-02-21T09:54:54;102042.78;;;-3.56;58.51
70323;BME280;57735;56.264;43.898;2024-02-21T09:57:25;102044.63;;;-3.64;57.86
70323;BME280;57735;56.264;43.898;2024-02-21T09:59:56;102037.00;;;-3.78;58.04
70323;BME280;57735;56.264;43.898;2024-02-21T10:02:27;102044.84;;;-3.79;59.42
70323;BME280;57735;56.264;43.898;2024-02-21T10:04:58;102044.75;;;-3.73;58.99
70323;BME280;57735;56.264;43.898;2024-02-21T10:07:35;102048.28;;;-3.77;58.95
70323;BME280;57735;56.264;43.898;2024-02-21T10:10:07;102035.28;;;-3.79;59.17
70323;BME280;57735;56.264;43.898;2024-02-21T10:12:51;102040.47;;;-3.76;59.54
70323;BME280;57735;56.264;43.898;2024-02-21T10:15:23;102035.91;;;-3.62;59.92
70323;BME280;57735;56.264;43.898;2024-02-21T10:18:01;102032.16;;;-3.44;59.22
70323;BME280;57735;56.264;43.898;2024-02-21T10:20:34;102026.00;;;-3.38;58.82
70323;BME280;57735;56.264;43.898;2024-02-21T10:23:05;102031.91;;;-3.29;58.49
70323;BME280;57735;56.264;43.898;2024-02-21T10:25:43;102034.50;;;-3.29;58.10
70323;BME280;57735;56.264;43.898;2024-02-21T10:28:18;102031.94;;;-3.32;57.82
70323;BME280;57735;56.264;43.898;2024-02-21T10:30:53;102025.88;;;-3.34;57.60
70323;BME280;57735;56.264;43.898;2024-02-21T10:33:27;102023.22;;;-3.31;57.35
70323;BME280;57735;56.264;43.898;2024-02-21T10:36:09;102015.34;;;-3.26;57.90
70323;BME280;57735;56.264;43.898;2024-02-21T10:38:40;102022.94;;;-3.12;58.44
70323;BME280;57735;56.264;43.898;2024-02-21T10:41:14;102015.84;;;-3.04;57.60
70323;BME280;57735;56.264;43.898;2024-02-21T10:43:57;102013.16;;;-3.01;57.61
70323;BME280;57735;56.264;43.898;2024-02-21T10:46:30;102013.09;;;-2.98;57.17
70323;BME280;57735;56.264;43.898;2024-02-21T10:49:13;102011.25;;;-2.92;56.87
70323;BME280;57735;56.264;43.898;2024-02-21T10:51:47;102011.81;;;-2.74;57.87
70323;BME280;57735;56.264;43.898;2024-02-21T10:54:47;102009.22;;;-2.76;56.34
70323;BME280;57735;56.264;43.898;2024-02-21T10:57:19;102004.03;;;-2.77;57.05
70323;BME280;57735;56.264;43.898;2024-02-21T10:59:55;102003.41;;;-2.90;56.92
70323;BME280;57735;56.264;43.898;2024-02-21T11:02:29;101999.88;;;-2.88;57.53
70323;BME280;57735;56.264;43.898;2024-02-21T11:05:04;102003.38;;;-2.89;57.03
70323;BME280;57735;56.264;43.898;2024-02-21T11:07:37;102000.06;;;-2.98;57.00
70323;BME280;57735;56.264;43.898;2024-02-21T11:10:24;101996.59;;;-2.99;57.32
70323;BME280;57735;56.264;43.898;2024-02-21T11:13:08;101994.69;;;-2.89;57.77
70323;BME280;57735;56.264;43.898;2024-02-21T11:15:39;101996.38;;;-2.85;57.25
70323;BME280;57735;56.264;43.898;2024-02-21T11:18:23;101996.38;;;-2.85;57.32
70323;BME280;57735;56.264;43.898;2024-02-21T11:20:55;101996.38;;;-2.85;57.07
70323;BME280;57735;56.264;43.898;2024-02-21T11:23:27;101985.22;;;-2.95;57.46
70323;BME280;57735;56.264;43.898;2024-02-21T11:26:07;101987.00;;;-2.97;57.71
70323;BME280;57735;56.264;43.898;2024-02-21T11:28:40;101993.25;;;-3.05;57.74
70323;BME280;57735;56.264;43.898;2024-02-21T11:31:13;101989.03;;;-3.12;58.02
70323;BME280;57735;56.264;43.898;2024-02-21T11:33:47;101987.28;;;-3.12;57.65
70323;BME280;57735;56.264;43.898;2024-02-21T11:36:26;101974.22;;;-3.12;57.63
70323;BME280;57735;56.264;43.898;2024-02-21T11:39:06;101983.78;;;-3.11;57.57
70323;BME280;57735;56.264;43.898;2024-02-21T11:41:37;101979.31;;;-3.04;57.91
70323;BME280;57735;56.264;43.898;2024-02-21T11:44:08;101979.31;;;-3.04;58.10
70323;BME280;57735;56.264;43.898;2024-02-21T11:46:39;101976.72;;;-3.04;57.62
70323;BME280;57735;56.264;43.898;2024-02-21T11:49:10;101975.88;;;-3.06;57.72
70323;BME280;57735;56.264;43.898;2024-02-21T11:51:41;101976.63;;;-3.01;57.67
70323;BME280;57735;56.264;43.898;2024-02-21T11:54:12;101972.25;;;-2.99;57.65
70323;BME280;57735;56.264;43.898;2024-02-21T11:56:46;101974.19;;;-3.09;57.84
70323;BME280;57735;56.264;43.898;2024-02-21T11:59:17;101978.63;;;-3.14;57.94
70323;BME280;57735;56.264;43.898;2024-02-21T12:01:49;101978.75;;;-3.20;57.82
70323;BME280;57735;56.264;43.898;2024-02-21T12:04:23;101980.41;;;-3.18;58.62
70323;BME280;57735;56.264;43.898;2024-02-21T12:06:58;101984.66;;;-3.10;58.35
70323;BME280;57735;56.264;43.898;2024-02-21T12:09:30;101982.25;;;-3.23;57.90
70323;BME280;57735;56.264;43.898;2024-02-21T12:12:03;101976.22;;;-3.26;58.26
70323;BME280;57735;56.264;43.898;2024-02-21T12:14:35;101971.84;;;-3.24;58.24
70323;BME280;57735;56.264;43.898;2024-02-21T12:17:07;101973.66;;;-3.28;57.97
70323;BME280;57735;56.264;43.898;2024-02-21T12:19:38;101972.84;;;-3.33;58.12
70323;BME280;57735;56.264;43.898;2024-02-21T12:22:16;101972.13;;;-3.39;58.39
70323;BME280;57735;56.264;43.898;2024-02-21T12:24:49;101975.63;;;-3.40;58.50
70323;BME280;57735;56.264;43.898;2024-02-21T12:27:24;101976.47;;;-3.40;58.40
70323;BME280;57735;56.264;43.898;2024-02-21T12:29:56;101973.97;;;-3.46;58.83
70323;BME280;57735;56.264;43.898;2024-02-21T12:32:27;101974.72;;;-3.38;58.79
70323;BME280;57735;56.264;43.898;2024-02-21T12:34:58;101974.59;;;-3.33;58.75
70323;BME280;57735;56.264;43.898;2024-02-21T12:37:31;101974.78;;;-3.42;58.79
70323;BME280;57735;56.264;43.898;2024-02-21T12:40:07;101969.53;;;-3.41;59.25
70323;BME280;57735;56.264;43.898;2024-02-21T12:42:38;101969.59;;;-3.44;58.85
70323;BME280;57735;56.264;43.898;2024-02-21T12:45:09;101965.31;;;-3.48;59.12
70323;BME280;57735;56.264;43.898;2024-02-21T12:47:40;101972.53;;;-3.65;58.36
70323;BME280;57735;56.264;43.898;2024-02-21T12:50:11;101964.88;;;-3.74;58.81
70323;BME280;57735;56.264;43.898;2024-02-21T12:52:42;101975.44;;;-3.83;59.09
70323;BME280;57735;56.264;43.898;2024-02-21T12:55:13;101958.19;;;-3.91;59.63
70323;BME280;57735;56.264;43.898;2024-02-21T12:57:44;101960.84;;;-3.95;59.35
70323;BME280;57735;56.264;43.898;2024-02-21T13:00:15;101970.28;;;-3.87;60.13
70323;BME280;57735;56.264;43.898;2024-02-21T13:02:47;101973.66;;;-3.81;60.38
70323;BME280;57735;56.264;43.898;2024-02-21T13:05:17;101971.06;;;-3.81;60.09
70323;BME280;57735;56.264;43.898;2024-02-21T13:07:51;101964.47;;;-4.04;59.64